sensor_id;sensor_type;location;lat;lon;timestamp;temperature;humidity
21353;DHT22;10834;52.268;6.770;2023-04-23T00:01:03;9.50;99.90
21353;DHT22;10834;52.268;6.770;2023-04-23T00:03:50;9.50;99.90
21353;DHT22;10834;52.268;6.770;2023-04-23T00:06:37;9.50;99.90
21353;DHT22;10834;52.268;6.770;2023-04-23T00:09:24;9.40;99.90
21353;DHT22;10834;52.268;6.770;2023-04-23T00:12:11;9.40;99.90
21353;DHT22;10834;52.268;6.770;2023-04-23T00:14:59;9.40;99.90
21353;DHT22;10834;52.268;6.770;2023-04-23T00:17:45;9.40;99.90
21353;DHT22;10834;52.268;6.770;2023-04-23T00:20:31;9.40;99.90
21353;DHT22;10834;52.268;6.770;2023-04-23T00:23:18;9.40;99.90
21353;DHT22;10834;52.268;6.770;2023-04-23T00:26:05;9.40;99.90
21353;DHT22;10834;52.268;6.770;2023-04-23T00:28:51;9.40;99.90
21353;DHT22;10834;52.268;6.770;2023-04-23T00:31:37;9.30;99.90
21353;DHT22;10834;52.268;6.770;2023-04-23T00:34:23;9.30;99.90
21353;DHT22;10834;52.268;6.770;2023-04-23T00:37:09;9.30;99.90
21353;DHT22;10834;52.268;6.770;2023-04-23T00:39:55;9.30;99.90
21353;DHT22;10834;52.268;6.770;2023-04-23T00:42:42;9.30;99.90
21353;DHT22;10834;52.268;6.770;2023-04-23T00:45:29;9.30;99.90
21353;DHT22;10834;52.268;6.770;2023-04-23T00:48:16;9.30;99.90
21353;DHT22;10834;52.268;6.770;2023-04-23T00:51:03;9.20;99.90
21353;DHT22;10834;52.268;6.770;2023-04-23T00:53:50;9.20;99.90
21353;DHT22;10834;52.268;6.770;2023-04-23T00:56:36;9.20;99.90
21353;DHT22;10834;52.268;6.770;2023-04-23T00:59:27;9.20;99.90
21353;DHT22;10834;52.268;6.770;2023-04-23T01:02:13;9.20;99.90
21353;DHT22;10834;52.268;6.770;2023-04-23T01:05:00;9.20;99.90
21353;DHT22;10834;52.268;6.770;2023-04-23T01:07:48;9.10;99.90
21353;DHT22;10834;52.268;6.770;2023-04-23T01:10:34;9.20;99.90
21353;DHT22;10834;52.268;6.770;2023-04-23T01:13:20;9.20;99.90
21353;DHT22;10834;52.268;6.770;2023-04-23T01:16:14;9.20;99.90
21353;DHT22;10834;52.268;6.770;2023-04-23T01:19:00;9.10;99.90
21353;DHT22;10834;52.268;6.770;2023-04-23T01:21:48;9.10;99.90
21353;DHT22;10834;52.268;6.770;2023-04-23T01:24:35;9.10;99.90
21353;DHT22;10834;52.268;6.770;2023-04-23T01:27:21;9.10;99.90
21353;DHT22;10834;52.268;6.770;2023-04-23T01:30:10;9.10;99.90
21353;DHT22;10834;52.268;6.770;2023-04-23T01:32:56;9.10;99.90
21353;DHT22;10834;52.268;6.770;2023-04-23T01:35:44;9.10;99.90
21353;DHT22;10834;52.268;6.770;2023-04-23T01:38:30;9.00;99.90
21353;DHT22;10834;52.268;6.770;2023-04-23T01:41:18;9.00;99.90
21353;DHT22;10834;52.268;6.770;2023-04-23T01:44:04;9.00;99.90
21353;DHT22;10834;52.268;6.770;2023-04-23T01:46:51;9.00;99.90
21353;DHT22;10834;52.268;6.770;2023-04-23T01:49:37;8.90;99.90
21353;DHT22;10834;52.268;6.770;2023-04-23T01:52:23;8.90;99.90
21353;DHT22;10834;52.268;6.770;2023-04-23T01:55:10;8.90;99.90
21353;DHT22;10834;52.268;6.770;2023-04-23T01:57:56;8.90;99.90
21353;DHT22;10834;52.268;6.770;2023-04-23T02:00:42;8.90;99.90
21353;DHT22;10834;52.268;6.770;2023-04-23T02:03:28;8.80;99.90
21353;DHT22;10834;52.268;6.770;2023-04-23T02:06:16;8.80;99.90
21353;DHT22;10834;52.268;6.770;2023-04-23T02:09:02;8.70;99.90
21353;DHT22;10834;52.268;6.770;2023-04-23T02:11:48;8.70;99.90
21353;DHT22;10834;52.268;6.770;2023-04-23T02:14:34;8.60;99.90
21353;DHT22;10834;52.268;6.770;2023-04-23T02:17:20;8.60;99.90
21353;DHT22;10834;52.268;6.770;2023-04-23T02:20:08;8.50;99.90
21353;DHT22;10834;52.268;6.770;2023-04-23T02:22:54;8.50;99.90
21353;DHT22;10834;52.268;6.770;2023-04-23T02:25:41;8.50;99.90
21353;DHT22;10834;52.268;6.770;2023-04-23T02:28:28;8.40;99.90
21353;DHT22;10834;52.268;6.770;2023-04-23T02:31:14;8.40;99.90
21353;DHT22;10834;52.268;6.770;2023-04-23T02:34:01;8.30;99.90
21353;DHT22;10834;52.268;6.770;2023-04-23T02:36:47;8.30;99.90
21353;DHT22;10834;52.268;6.770;2023-04-23T02:39:33;8.30;99.90
21353;DHT22;10834;52.268;6.770;2023-04-23T02:42:19;8.30;99.90
21353;DHT22;10834;52.268;6.770;2023-04-23T02:45:06;8.30;99.90
21353;DHT22;10834;52.268;6.770;2023-04-23T02:47:52;8.20;99.90
21353;DHT22;10834;52.268;6.770;2023-04-23T02:50:38;8.30;99.90
21353;DHT22;10834;52.268;6.770;2023-04-23T02:53:24;8.40;99.90
21353;DHT22;10834;52.268;6.770;2023-04-23T02:56:11;8.40;99.90
21353;DHT22;10834;52.268;6.770;2023-04-23T02:58:57;8.40;99.90
21353;DHT22;10834;52.268;6.770;2023-04-23T03:01:43;8.50;99.90
21353;DHT22;10834;52.268;6.770;2023-04-23T03:04:29;8.50;99.90
21353;DHT22;10834;52.268;6.770;2023-04-23T03:07:15;8.50;99.90
21353;DHT22;10834;52.268;6.770;2023-04-23T03:10:02;8.50;99.90
21353;DHT22;10834;52.268;6.770;2023-04-23T03:12:48;8.50;99.90
21353;DHT22;10834;52.268;6.770;2023-04-23T03:15:34;8.50;99.90
21353;DHT22;10834;52.268;6.770;2023-04-23T03:18:20;8.60;99.90
21353;DHT22;10834;52.268;6.770;2023-04-23T03:21:06;8.60;99.90
21353;DHT22;10834;52.268;6.770;2023-04-23T03:23:53;8.60;99.90
21353;DHT22;10834;52.268;6.770;2023-04-23T03:26:39;8.70;99.90
21353;DHT22;10834;52.268;6.770;2023-04-23T03:29:26;8.70;99.90
21353;DHT22;10834;52.268;6.770;2023-04-23T03:32:12;8.70;99.90
21353;DHT22;10834;52.268;6.770;2023-04-23T03:34:58;8.70;99.90
21353;DHT22;10834;52.268;6.770;2023-04-23T03:37:44;8.70;99.90
21353;DHT22;10834;52.268;6.770;2023-04-23T03:40:30;8.70;99.90
21353;DHT22;10834;52.268;6.770;2023-04-23T03:43:16;8.70;99.90
21353;DHT22;10834;52.268;6.770;2023-04-23T03:46:02;8.70;99.90
21353;DHT22;10834;52.268;6.770;2023-04-23T03:48:48;8.70;99.90
21353;DHT22;10834;52.268;6.770;2023-04-23T03:51:34;8.70;99.90
21353;DHT22;10834;52.268;6.770;2023-04-23T03:54:20;8.60;99.90
21353;DHT22;10834;52.268;6.770;2023-04-23T03:57:09;8.60;99.90
21353;DHT22;10834;52.268;6.770;2023-04-23T03:59:56;8.60;99.90
21353;DHT22;10834;52.268;6.770;2023-04-23T04:02:43;8.70;99.90
21353;DHT22;10834;52.268;6.770;2023-04-23T04:05:29;8.70;99.90
21353;DHT22;10834;52.268;6.770;2023-04-23T04:08:15;8.80;99.90
21353;DHT22;10834;52.268;6.770;2023-04-23T04:11:01;8.80;99.90
21353;DHT22;10834;52.268;6.770;2023-04-23T04:13:47;8.90;99.90
21353;DHT22;10834;52.268;6.770;2023-04-23T04:16:33;8.90;99.90
21353;DHT22;10834;52.268;6.770;2023-04-23T04:19:19;8.90;99.90
21353;DHT22;10834;52.268;6.770;2023-04-23T04:22:05;9.00;99.90
21353;DHT22;10834;52.268;6.770;2023-04-23T04:24:51;9.00;99.90
21353;DHT22;10834;52.268;6.770;2023-04-23T04:27:37;9.00;99.90
21353;DHT22;10834;52.268;6.770;2023-04-23T04:30:23;9.00;99.90
21353;DHT22;10834;52.268;6.770;2023-04-23T04:33:11;9.00;99.90
21353;DHT22;10834;52.268;6.770;2023-04-23T04:35:57;9.10;99.90
21353;DHT22;10834;52.268;6.770;2023-04-23T04:38:45;9.10;99.90
21353;DHT22;10834;52.268;6.770;2023-04-23T04:41:31;9.10;99.90
21353;DHT22;10834;52.268;6.770;2023-04-23T04:44:17;9.10;99.90
21353;DHT22;10834;52.268;6.770;2023-04-23T04:47:04;9.10;99.90
21353;DHT22;10834;52.268;6.770;2023-04-23T04:49:51;9.10;99.90
21353;DHT22;10834;52.268;6.770;2023-04-23T04:52:37;9.20;99.90
21353;DHT22;10834;52.268;6.770;2023-04-23T04:55:23;9.10;99.90
21353;DHT22;10834;52.268;6.770;2023-04-23T04:58:09;9.20;99.90
21353;DHT22;10834;52.268;6.770;2023-04-23T05:00:55;9.10;99.90
21353;DHT22;10834;52.268;6.770;2023-04-23T05:03:41;9.20;99.90
21353;DHT22;10834;52.268;6.770;2023-04-23T05:06:27;9.20;99.90
21353;DHT22;10834;52.268;6.770;2023-04-23T05:09:14;9.20;99.90
21353;DHT22;10834;52.268;6.770;2023-04-23T05:12:00;9.10;99.90
21353;DHT22;10834;52.268;6.770;2023-04-23T05:14:46;9.10;99.90
21353;DHT22;10834;52.268;6.770;2023-04-23T05:17:32;9.00;99.90
21353;DHT22;10834;52.268;6.770;2023-04-23T05:20:19;9.10;99.90
21353;DHT22;10834;52.268;6.770;2023-04-23T05:23:05;9.10;99.90
21353;DHT22;10834;52.268;6.770;2023-04-23T05:25:51;9.10;99.90
21353;DHT22;10834;52.268;6.770;2023-04-23T05:28:40;9.20;99.90
21353;DHT22;10834;52.268;6.770;2023-04-23T05:31:26;9.30;99.90
21353;DHT22;10834;52.268;6.770;2023-04-23T05:34:12;9.30;99.90
21353;DHT22;10834;52.268;6.770;2023-04-23T05:36:58;9.30;99.90
21353;DHT22;10834;52.268;6.770;2023-04-23T05:39:44;9.40;99.90
21353;DHT22;10834;52.268;6.770;2023-04-23T05:42:30;9.40;99.90
21353;DHT22;10834;52.268;6.770;2023-04-23T05:45:17;9.60;99.90
21353;DHT22;10834;52.268;6.770;2023-04-23T05:48:03;9.70;99.90
21353;DHT22;10834;52.268;6.770;2023-04-23T05:50:49;9.90;99.90
21353;DHT22;10834;52.268;6.770;2023-04-23T05:53:35;10.00;99.90
21353;DHT22;10834;52.268;6.770;2023-04-23T05:56:21;10.20;99.90
21353;DHT22;10834;52.268;6.770;2023-04-23T05:59:07;10.50;99.90
21353;DHT22;10834;52.268;6.770;2023-04-23T06:01:54;11.00;99.90
21353;DHT22;10834;52.268;6.770;2023-04-23T06:04:40;11.40;99.90
21353;DHT22;10834;52.268;6.770;2023-04-23T06:07:26;11.60;99.90
21353;DHT22;10834;52.268;6.770;2023-04-23T06:10:12;11.70;99.90
21353;DHT22;10834;52.268;6.770;2023-04-23T06:12:58;11.80;99.90
21353;DHT22;10834;52.268;6.770;2023-04-23T06:15:44;11.90;99.90
21353;DHT22;10834;52.268;6.770;2023-04-23T06:18:30;12.00;99.90
21353;DHT22;10834;52.268;6.770;2023-04-23T06:21:16;12.20;99.90
21353;DHT22;10834;52.268;6.770;2023-04-23T06:24:02;12.50;99.90
21353;DHT22;10834;52.268;6.770;2023-04-23T06:26:49;12.70;99.90
21353;DHT22;10834;52.268;6.770;2023-04-23T06:29:36;12.60;99.90
21353;DHT22;10834;52.268;6.770;2023-04-23T06:32:22;12.30;99.90
21353;DHT22;10834;52.268;6.770;2023-04-23T06:35:08;12.20;99.90
21353;DHT22;10834;52.268;6.770;2023-04-23T06:37:54;12.00;99.90
21353;DHT22;10834;52.268;6.770;2023-04-23T06:40:41;11.90;99.90
21353;DHT22;10834;52.268;6.770;2023-04-23T06:43:27;11.90;99.90
21353;DHT22;10834;52.268;6.770;2023-04-23T06:46:13;11.90;99.90
21353;DHT22;10834;52.268;6.770;2023-04-23T06:48:59;12.10;99.90
21353;DHT22;10834;52.268;6.770;2023-04-23T06:51:45;12.30;99.90
21353;DHT22;10834;52.268;6.770;2023-04-23T06:54:33;12.50;99.90
21353;DHT22;10834;52.268;6.770;2023-04-23T06:57:19;12.70;99.90
21353;DHT22;10834;52.268;6.770;2023-04-23T07:00:07;13.00;99.90
21353;DHT22;10834;52.268;6.770;2023-04-23T07:02:56;14.50;99.90
21353;DHT22;10834;52.268;6.770;2023-04-23T07:05:42;15.90;99.90
21353;DHT22;10834;52.268;6.770;2023-04-23T07:08:28;18.60;99.90
21353;DHT22;10834;52.268;6.770;2023-04-23T07:11:14;21.90;99.90
21353;DHT22;10834;52.268;6.770;2023-04-23T07:14:01;25.10;77.20
21353;DHT22;10834;52.268;6.770;2023-04-23T07:16:47;27.70;58.20
21353;DHT22;10834;52.268;6.770;2023-04-23T07:19:33;30.10;51.60
21353;DHT22;10834;52.268;6.770;2023-04-23T07:22:19;31.50;45.10
21353;DHT22;10834;52.268;6.770;2023-04-23T07:25:05;32.50;43.00
21353;DHT22;10834;52.268;6.770;2023-04-23T07:27:53;33.60;41.50
21353;DHT22;10834;52.268;6.770;2023-04-23T07:30:39;34.90;40.20
21353;DHT22;10834;52.268;6.770;2023-04-23T07:33:25;35.80;37.90
21353;DHT22;10834;52.268;6.770;2023-04-23T07:36:11;35.70;35.40
21353;DHT22;10834;52.268;6.770;2023-04-23T07:38:57;35.90;35.80
21353;DHT22;10834;52.268;6.770;2023-04-23T08:11:22;40.30;29.90
21353;DHT22;10834;52.268;6.770;2023-04-23T08:14:08;41.00;29.70
21353;DHT22;10834;52.268;6.770;2023-04-23T08:16:54;41.20;28.50
21353;DHT22;10834;52.268;6.770;2023-04-23T08:19:40;41.00;28.80
21353;DHT22;10834;52.268;6.770;2023-04-23T08:22:26;41.40;28.90
21353;DHT22;10834;52.268;6.770;2023-04-23T08:25:12;41.70;28.10
21353;DHT22;10834;52.268;6.770;2023-04-23T08:27:59;42.20;28.60
21353;DHT22;10834;52.268;6.770;2023-04-23T08:30:45;42.40;28.40
21353;DHT22;10834;52.268;6.770;2023-04-23T08:33:31;42.40;27.80
21353;DHT22;10834;52.268;6.770;2023-04-23T08:36:17;42.40;27.50
21353;DHT22;10834;52.268;6.770;2023-04-23T08:39:03;42.60;28.30
21353;DHT22;10834;52.268;6.770;2023-04-23T08:41:54;42.80;27.40
21353;DHT22;10834;52.268;6.770;2023-04-23T08:44:40;42.60;27.40
21353;DHT22;10834;52.268;6.770;2023-04-23T08:47:31;42.80;27.70
21353;DHT22;10834;52.268;6.770;2023-04-23T08:50:18;43.20;27.50
21353;DHT22;10834;52.268;6.770;2023-04-23T08:53:05;43.40;27.10
21353;DHT22;10834;52.268;6.770;2023-04-23T08:55:51;43.20;27.10
21353;DHT22;10834;52.268;6.770;2023-04-23T08:58:40;43.20;27.00
21353;DHT22;10834;52.268;6.770;2023-04-23T09:01:26;43.20;26.80
21353;DHT22;10834;52.268;6.770;2023-04-23T09:04:13;42.50;26.20
21353;DHT22;10834;52.268;6.770;2023-04-23T09:07:02;42.30;27.20
21353;DHT22;10834;52.268;6.770;2023-04-23T09:09:49;42.50;27.30
21353;DHT22;10834;52.268;6.770;2023-04-23T09:12:36;42.30;26.90
21353;DHT22;10834;52.268;6.770;2023-04-23T09:15:22;42.50;27.20
21353;DHT22;10834;52.268;6.770;2023-04-23T09:18:09;42.50;26.90
21353;DHT22;10834;52.268;6.770;2023-04-23T09:20:55;42.50;27.20
21353;DHT22;10834;52.268;6.770;2023-04-23T09:23:42;42.90;27.10
21353;DHT22;10834;52.268;6.770;2023-04-23T09:26:28;42.60;26.80
21353;DHT22;10834;52.268;6.770;2023-04-23T09:29:18;41.40;26.30
21353;DHT22;10834;52.268;6.770;2023-04-23T09:32:08;41.10;27.00
21353;DHT22;10834;52.268;6.770;2023-04-23T09:34:57;41.20;27.00
21353;DHT22;10834;52.268;6.770;2023-04-23T09:37:45;40.90;27.40
21353;DHT22;10834;52.268;6.770;2023-04-23T09:40:35;41.10;27.70
21353;DHT22;10834;52.268;6.770;2023-04-23T09:43:22;41.80;28.30
21353;DHT22;10834;52.268;6.770;2023-04-23T09:46:09;41.70;26.20
21353;DHT22;10834;52.268;6.770;2023-04-23T09:48:56;41.30;26.80
21353;DHT22;10834;52.268;6.770;2023-04-23T09:51:46;41.10;27.00
21353;DHT22;10834;52.268;6.770;2023-04-23T09:54:32;40.80;26.80
21353;DHT22;10834;52.268;6.770;2023-04-23T09:57:18;40.40;28.00
21353;DHT22;10834;52.268;6.770;2023-04-23T10:00:15;40.20;27.50
21353;DHT22;10834;52.268;6.770;2023-04-23T10:03:02;40.20;27.90
21353;DHT22;10834;52.268;6.770;2023-04-23T10:05:48;39.90;27.00
21353;DHT22;10834;52.268;6.770;2023-04-23T10:08:34;39.00;27.60
21353;DHT22;10834;52.268;6.770;2023-04-23T10:11:23;38.20;28.00
21353;DHT22;10834;52.268;6.770;2023-04-23T10:14:09;35.70;28.80
21353;DHT22;10834;52.268;6.770;2023-04-23T10:17:01;35.00;30.20
21353;DHT22;10834;52.268;6.770;2023-04-23T10:19:49;34.70;30.90
21353;DHT22;10834;52.268;6.770;2023-04-23T10:22:37;34.10;31.50
21353;DHT22;10834;52.268;6.770;2023-04-23T10:25:23;34.90;31.10
21353;DHT22;10834;52.268;6.770;2023-04-23T10:28:11;35.20;30.60
21353;DHT22;10834;52.268;6.770;2023-04-23T10:30:59;35.40;30.20
21353;DHT22;10834;52.268;6.770;2023-04-23T10:33:47;35.30;30.00
21353;DHT22;10834;52.268;6.770;2023-04-23T10:36:37;35.00;29.50
21353;DHT22;10834;52.268;6.770;2023-04-23T10:39:26;33.60;32.40
21353;DHT22;10834;52.268;6.770;2023-04-23T10:42:13;33.30;32.20
21353;DHT22;10834;52.268;6.770;2023-04-23T10:44:58;32.40;31.30
21353;DHT22;10834;52.268;6.770;2023-04-23T10:47:45;31.20;33.40
21353;DHT22;10834;52.268;6.770;2023-04-23T10:50:35;30.10;34.50
21353;DHT22;10834;52.268;6.770;2023-04-23T10:53:21;28.50;35.80
21353;DHT22;10834;52.268;6.770;2023-04-23T10:56:08;27.00;38.00
21353;DHT22;10834;52.268;6.770;2023-04-23T10:58:55;26.40;40.10
21353;DHT22;10834;52.268;6.770;2023-04-23T11:01:41;26.40;40.80
21353;DHT22;10834;52.268;6.770;2023-04-23T11:04:31;26.30;40.00
21353;DHT22;10834;52.268;6.770;2023-04-23T11:07:18;26.10;40.70
21353;DHT22;10834;52.268;6.770;2023-04-23T11:10:12;26.10;41.50
21353;DHT22;10834;52.268;6.770;2023-04-23T11:13:21;26.10;38.70
21353;DHT22;10834;52.268;6.770;2023-04-23T11:19:02;25.70;40.80
21353;DHT22;10834;52.268;6.770;2023-04-23T11:22:06;25.80;41.30
21353;DHT22;10834;52.268;6.770;2023-04-23T11:24:55;25.80;40.00
21353;DHT22;10834;52.268;6.770;2023-04-23T11:27:42;25.20;38.30
21353;DHT22;10834;52.268;6.770;2023-04-23T11:30:29;24.90;39.80
21353;DHT22;10834;52.268;6.770;2023-04-23T11:33:15;24.90;41.90
21353;DHT22;10834;52.268;6.770;2023-04-23T11:36:02;24.80;41.70
21353;DHT22;10834;52.268;6.770;2023-04-23T11:38:48;24.60;41.60
21353;DHT22;10834;52.268;6.770;2023-04-23T11:41:35;24.80;41.50
21353;DHT22;10834;52.268;6.770;2023-04-23T11:44:21;24.70;41.00
21353;DHT22;10834;52.268;6.770;2023-04-23T11:47:08;24.40;40.60
21353;DHT22;10834;52.268;6.770;2023-04-23T11:49:55;24.40;40.60
21353;DHT22;10834;52.268;6.770;2023-04-23T11:52:43;24.20;40.90
21353;DHT22;10834;52.268;6.770;2023-04-23T11:55:29;23.70;41.40
21353;DHT22;10834;52.268;6.770;2023-04-23T11:58:18;23.50;42.90
21353;DHT22;10834;52.268;6.770;2023-04-23T12:01:04;23.30;42.80
21353;DHT22;10834;52.268;6.770;2023-04-23T12:03:50;23.00;42.10
21353;DHT22;10834;52.268;6.770;2023-04-23T12:06:37;22.80;43.70
21353;DHT22;10834;52.268;6.770;2023-04-23T12:09:25;22.80;43.90
21353;DHT22;10834;52.268;6.770;2023-04-23T12:12:12;22.80;43.60
21353;DHT22;10834;52.268;6.770;2023-04-23T12:15:05;22.70;44.40
21353;DHT22;10834;52.268;6.770;2023-04-23T12:18:08;22.60;44.30
21353;DHT22;10834;52.268;6.770;2023-04-23T12:20:54;22.50;44.10
21353;DHT22;10834;52.268;6.770;2023-04-23T12:23:42;22.30;44.90
21353;DHT22;10834;52.268;6.770;2023-04-23T12:26:29;22.30;45.30
21353;DHT22;10834;52.268;6.770;2023-04-23T12:29:17;22.30;45.20
21353;DHT22;10834;52.268;6.770;2023-04-23T12:32:03;22.20;45.80
21353;DHT22;10834;52.268;6.770;2023-04-23T12:34:56;22.10;45.20
21353;DHT22;10834;52.268;6.770;2023-04-23T12:37:42;21.80;44.60
21353;DHT22;10834;52.268;6.770;2023-04-23T12:40:28;21.70;45.90
21353;DHT22;10834;52.268;6.770;2023-04-23T12:43:14;21.60;46.00
21353;DHT22;10834;52.268;6.770;2023-04-23T12:46:00;21.60;45.90
21353;DHT22;10834;52.268;6.770;2023-04-23T12:48:46;21.40;45.80
21353;DHT22;10834;52.268;6.770;2023-04-23T12:51:33;21.50;46.80
21353;DHT22;10834;52.268;6.770;2023-04-23T12:54:19;21.60;47.10
21353;DHT22;10834;52.268;6.770;2023-04-23T12:57:07;21.60;46.40
21353;DHT22;10834;52.268;6.770;2023-04-23T12:59:55;21.50;46.10
21353;DHT22;10834;52.268;6.770;2023-04-23T13:02:41;21.30;45.80
21353;DHT22;10834;52.268;6.770;2023-04-23T13:05:27;21.20;46.40
21353;DHT22;10834;52.268;6.770;2023-04-23T13:08:13;21.20;47.20
21353;DHT22;10834;52.268;6.770;2023-04-23T13:10:59;21.20;46.90
21353;DHT22;10834;52.268;6.770;2023-04-23T13:13:48;21.30;46.20
21353;DHT22;10834;52.268;6.770;2023-04-23T13:16:34;21.40;47.40
21353;DHT22;10834;52.268;6.770;2023-04-23T13:19:21;21.70;46.60
21353;DHT22;10834;52.268;6.770;2023-04-23T13:22:07;22.00;45.60
21353;DHT22;10834;52.268;6.770;2023-04-23T13:24:54;22.20;45.10
21353;DHT22;10834;52.268;6.770;2023-04-23T13:27:42;22.40;43.90
21353;DHT22;10834;52.268;6.770;2023-04-23T13:30:28;22.40;43.60
21353;DHT22;10834;52.268;6.770;2023-04-23T13:33:14;22.40;45.40
21353;DHT22;10834;52.268;6.770;2023-04-23T13:36:01;22.40;44.60
21353;DHT22;10834;52.268;6.770;2023-04-23T13:38:47;22.10;45.70
21353;DHT22;10834;52.268;6.770;2023-04-23T13:41:34;21.90;43.70
21353;DHT22;10834;52.268;6.770;2023-04-23T13:44:20;21.70;44.00
21353;DHT22;10834;52.268;6.770;2023-04-23T13:47:06;21.70;45.90
21353;DHT22;10834;52.268;6.770;2023-04-23T13:49:53;21.70;45.00
21353;DHT22;10834;52.268;6.770;2023-04-23T13:52:39;21.40;45.70
21353;DHT22;10834;52.268;6.770;2023-04-23T13:55:25;21.20;47.00
21353;DHT22;10834;52.268;6.770;2023-04-23T13:58:11;21.10;47.10
21353;DHT22;10834;52.268;6.770;2023-04-23T14:00:57;21.20;47.50
21353;DHT22;10834;52.268;6.770;2023-04-23T14:03:43;21.40;46.90
21353;DHT22;10834;52.268;6.770;2023-04-23T14:06:29;21.70;47.00
21353;DHT22;10834;52.268;6.770;2023-04-23T14:09:16;21.70;46.90
21353;DHT22;10834;52.268;6.770;2023-04-23T14:12:03;21.70;48.10
21353;DHT22;10834;52.268;6.770;2023-04-23T14:14:49;21.90;49.50
21353;DHT22;10834;52.268;6.770;2023-04-23T14:17:36;21.90;49.10
21353;DHT22;10834;52.268;6.770;2023-04-23T14:20:24;21.80;49.40
21353;DHT22;10834;52.268;6.770;2023-04-23T14:26:09;21.70;49.10
21353;DHT22;10834;52.268;6.770;2023-04-23T14:28:57;21.60;49.00
21353;DHT22;10834;52.268;6.770;2023-04-23T14:31:46;21.50;50.00
21353;DHT22;10834;52.268;6.770;2023-04-23T14:34:32;21.40;49.80
21353;DHT22;10834;52.268;6.770;2023-04-23T14:37:21;21.40;49.70
21353;DHT22;10834;52.268;6.770;2023-04-23T14:40:08;21.30;49.30
21353;DHT22;10834;52.268;6.770;2023-04-23T14:42:54;21.30;49.80
21353;DHT22;10834;52.268;6.770;2023-04-23T14:45:40;21.20;49.30
21353;DHT22;10834;52.268;6.770;2023-04-23T14:48:26;21.20;49.30
21353;DHT22;10834;52.268;6.770;2023-04-23T14:51:12;21.10;49.40
21353;DHT22;10834;52.268;6.770;2023-04-23T14:53:58;20.90;49.60
21353;DHT22;10834;52.268;6.770;2023-04-23T14:56:45;20.70;49.80
21353;DHT22;10834;52.268;6.770;2023-04-23T14:59:31;20.50;51.40
21353;DHT22;10834;52.268;6.770;2023-04-23T15:02:17;20.50;50.90
21353;DHT22;10834;52.268;6.770;2023-04-23T15:05:03;20.60;51.30
21353;DHT22;10834;52.268;6.770;2023-04-23T15:07:49;20.60;49.80
21353;DHT22;10834;52.268;6.770;2023-04-23T15:10:38;20.50;50.00
21353;DHT22;10834;52.268;6.770;2023-04-23T15:16:33;20.60;52.00
21353;DHT22;10834;52.268;6.770;2023-04-23T15:19:19;20.70;51.90
21353;DHT22;10834;52.268;6.770;2023-04-23T15:22:05;20.70;51.80
21353;DHT22;10834;52.268;6.770;2023-04-23T15:24:52;20.60;51.40
21353;DHT22;10834;52.268;6.770;2023-04-23T15:27:38;20.50;52.00
21353;DHT22;10834;52.268;6.770;2023-04-23T15:30:25;20.50;51.80
21353;DHT22;10834;52.268;6.770;2023-04-23T15:33:11;20.30;50.90
21353;DHT22;10834;52.268;6.770;2023-04-23T15:35:57;20.20;50.90
21353;DHT22;10834;52.268;6.770;2023-04-23T15:38:59;20.20;51.40
21353;DHT22;10834;52.268;6.770;2023-04-23T15:41:45;20.00;51.40
21353;DHT22;10834;52.268;6.770;2023-04-23T15:44:31;20.00;52.00
21353;DHT22;10834;52.268;6.770;2023-04-23T15:47:17;19.80;52.90
21353;DHT22;10834;52.268;6.770;2023-04-23T15:50:04;19.70;53.00
21353;DHT22;10834;52.268;6.770;2023-04-23T15:52:50;19.50;52.80
21353;DHT22;10834;52.268;6.770;2023-04-23T15:55:36;19.30;53.30
21353;DHT22;10834;52.268;6.770;2023-04-23T15:58:25;19.30;54.30
21353;DHT22;10834;52.268;6.770;2023-04-23T16:01:11;19.30;55.30
21353;DHT22;10834;52.268;6.770;2023-04-23T16:03:57;19.20;53.40
21353;DHT22;10834;52.268;6.770;2023-04-23T16:06:43;19.20;53.30
21353;DHT22;10834;52.268;6.770;2023-04-23T16:09:30;19.20;53.50
21353;DHT22;10834;52.268;6.770;2023-04-23T16:12:17;19.10;52.90
21353;DHT22;10834;52.268;6.770;2023-04-23T16:15:03;19.10;54.00
21353;DHT22;10834;52.268;6.770;2023-04-23T16:17:50;19.00;54.30
21353;DHT22;10834;52.268;6.770;2023-04-23T16:20:37;18.90;53.30
21353;DHT22;10834;52.268;6.770;2023-04-23T16:23:23;18.80;54.00
21353;DHT22;10834;52.268;6.770;2023-04-23T16:26:10;18.80;54.70
21353;DHT22;10834;52.268;6.770;2023-04-23T16:28:56;18.70;53.00
21353;DHT22;10834;52.268;6.770;2023-04-23T16:31:42;18.70;53.60
21353;DHT22;10834;52.268;6.770;2023-04-23T16:34:28;18.60;53.90
21353;DHT22;10834;52.268;6.770;2023-04-23T16:37:15;18.50;53.60
21353;DHT22;10834;52.268;6.770;2023-04-23T16:40:01;18.30;54.00
21353;DHT22;10834;52.268;6.770;2023-04-23T16:42:47;18.10;57.50
21353;DHT22;10834;52.268;6.770;2023-04-23T16:45:33;17.70;61.10
21353;DHT22;10834;52.268;6.770;2023-04-23T16:48:19;17.30;66.30
21353;DHT22;10834;52.268;6.770;2023-04-23T16:51:08;16.90;74.60
21353;DHT22;10834;52.268;6.770;2023-04-23T16:53:58;16.50;87.70
21353;DHT22;10834;52.268;6.770;2023-04-23T16:56:44;16.10;99.90
21353;DHT22;10834;52.268;6.770;2023-04-23T16:59:31;15.70;99.90
21353;DHT22;10834;52.268;6.770;2023-04-23T17:02:17;15.40;99.90
21353;DHT22;10834;52.268;6.770;2023-04-23T17:05:03;15.10;99.90
21353;DHT22;10834;52.268;6.770;2023-04-23T17:07:50;15.00;99.90
21353;DHT22;10834;52.268;6.770;2023-04-23T17:10:38;14.80;99.90
21353;DHT22;10834;52.268;6.770;2023-04-23T17:13:24;14.70;99.90
21353;DHT22;10834;52.268;6.770;2023-04-23T17:16:10;14.50;99.90
21353;DHT22;10834;52.268;6.770;2023-04-23T17:18:56;14.40;99.90
21353;DHT22;10834;52.268;6.770;2023-04-23T17:21:42;14.20;99.90
21353;DHT22;10834;52.268;6.770;2023-04-23T17:24:28;14.20;99.90
21353;DHT22;10834;52.268;6.770;2023-04-23T17:27:14;14.10;99.90
21353;DHT22;10834;52.268;6.770;2023-04-23T17:30:00;14.10;99.90
21353;DHT22;10834;52.268;6.770;2023-04-23T17:32:46;14.00;99.90
21353;DHT22;10834;52.268;6.770;2023-04-23T17:35:32;14.00;99.90
21353;DHT22;10834;52.268;6.770;2023-04-23T17:38:18;14.00;99.90
21353;DHT22;10834;52.268;6.770;2023-04-23T17:41:05;13.90;99.90
21353;DHT22;10834;52.268;6.770;2023-04-23T17:43:51;13.90;99.90
21353;DHT22;10834;52.268;6.770;2023-04-23T17:46:38;13.90;99.90
21353;DHT22;10834;52.268;6.770;2023-04-23T17:49:23;13.90;99.90
21353;DHT22;10834;52.268;6.770;2023-04-23T17:52:10;13.80;99.90
21353;DHT22;10834;52.268;6.770;2023-04-23T17:54:56;13.80;99.90
21353;DHT22;10834;52.268;6.770;2023-04-23T17:57:42;13.70;99.90
21353;DHT22;10834;52.268;6.770;2023-04-23T18:00:28;13.70;99.90
21353;DHT22;10834;52.268;6.770;2023-04-23T18:03:14;13.70;99.90
21353;DHT22;10834;52.268;6.770;2023-04-23T18:06:02;13.70;99.90
21353;DHT22;10834;52.268;6.770;2023-04-23T18:08:48;13.60;99.90
21353;DHT22;10834;52.268;6.770;2023-04-23T18:11:34;13.60;99.90
21353;DHT22;10834;52.268;6.770;2023-04-23T18:14:22;13.60;99.90
21353;DHT22;10834;52.268;6.770;2023-04-23T18:17:08;13.50;99.90